Time;durP1;ratioP1;P1;durP2;ratioP2;P2;SDS_P1;SDS_P2;PMS_P1;PMS_P2;Temp;Humidity;BMP_temperature;BMP_pressure;BME280_temperature;BME280_humidity;BME280_pressure;Samples;Min_cycle;Max_cycle;Signal;HPM_P1;HPM_P2
2022/09/08 00:02:08;;;;;;;12.27;4.28;;;23.60;74.30;;;;;;6276837;22;20011;-74
2022/09/08 00:04:33;;;;;;;10.85;4.53;;;23.60;74.50;;;;;;6276715;22;19996;-75
2022/09/08 00:07:01;;;;;;;8.40;4.13;;;23.60;74.70;;;;;;6276337;22;20000;-74
2022/09/08 00:09:30;;;;;;;7.10;4.10;;;23.60;74.90;;;;;;6276047;22;20008;-75
2022/09/08 00:11:57;;;;;;;10.82;4.50;;;23.50;74.90;;;;;;6276726;22;20000;-74
2022/09/08 00:14:23;;;;;;;10.45;4.32;;;23.50;75.00;;;;;;6276784;22;20027;-74
2022/09/08 00:16:49;;;;;;;7.82;3.67;;;23.50;75.10;;;;;;6276409;22;20034;-74
2022/09/08 00:19:15;;;;;;;6.95;4.05;;;23.50;75.30;;;;;;6276744;22;20491;-74
2022/09/08 00:21:41;;;;;;;7.50;3.75;;;23.50;75.40;;;;;;6276488;22;20010;-74
2022/09/08 00:24:07;;;;;;;9.90;3.83;;;23.50;75.40;;;;;;6276457;22;20000;-74
2022/09/08 00:26:33;;;;;;;6.25;3.47;;;23.40;75.30;;;;;;6276654;22;19996;-75
2022/09/08 00:28:59;;;;;;;5.60;3.20;;;23.50;75.40;;;;;;6275891;22;20007;-74
2022/09/08 00:31:25;;;;;;;6.22;3.40;;;23.40;75.20;;;;;;6276549;22;20000;-75
2022/09/08 00:33:51;;;;;;;7.80;3.67;;;23.50;75.30;;;;;;6276402;22;19999;-75
2022/09/08 00:36:18;;;;;;;9.93;3.40;;;23.50;75.40;;;;;;6276313;22;20062;-74
2022/09/08 00:38:50;;;;;;;8.45;3.38;;;23.50;75.50;;;;;;6276476;22;20414;-74
2022/09/08 00:41:17;;;;;;;9.63;3.03;;;23.50;75.40;;;;;;6276289;22;20071;-74
2022/09/08 00:43:45;;;;;;;7.95;3.67;;;23.50;75.20;;;;;;6276421;22;20018;-74
2022/09/08 00:46:14;;;;;;;5.15;3.10;;;23.50;75.30;;;;;;6276623;22;20075;-74
2022/09/08 00:49:10;;;;;;;8.07;3.60;;;23.50;74.90;;;;;;6276021;22;20066;-74
2022/09/08 00:51:41;;;;;;;5.18;3.20;;;23.50;75.30;;;;;;6276474;22;20378;-74
2022/09/08 00:54:09;;;;;;;7.57;3.38;;;23.50;75.30;;;;;;6276289;22;20023;-74
2022/09/08 00:56:34;;;;;;;8.57;3.42;;;23.50;75.30;;;;;;6276347;22;20047;-75
2022/09/08 00:59:01;;;;;;;5.15;2.85;;;23.50;75.30;;;;;;6273130;22;20015;-75
2022/09/08 01:01:28;;;;;;;7.57;3.05;;;23.50;75.30;;;;;;6272940;22;20004;-75
2022/09/08 01:03:55;;;;;;;7.50;3.40;;;23.50;75.30;;;;;;6273027;22;20130;-75
2022/09/08 01:12:44;;;;;;;7.05;3.10;;;23.50;75.50;;;;;;6275941;22;20014;-73
2022/09/08 01:15:14;;;;;;;7.77;3.87;;;23.50;75.60;;;;;;6275923;22;20003;-74
2022/09/08 01:17:41;;;;;;;10.23;4.40;;;23.40;75.70;;;;;;6275658;22;20314;-74
2022/09/08 01:20:08;;;;;;;5.68;3.58;;;23.50;75.80;;;;;;6275505;22;20000;-74
2022/09/08 01:23:23;;;;;;;8.80;3.63;;;23.40;75.90;;;;;;6276208;22;20000;-74
2022/09/08 01:25:54;;;;;;;8.18;3.45;;;23.40;75.70;;;;;;6123272;23;20430;-74
2022/09/08 01:28:38;;;;;;;11.65;3.53;;;23.30;75.60;;;;;;6122862;23;20014;-74
2022/09/08 01:31:06;;;;;;;7.78;3.15;;;23.40;75.40;;;;;;6231234;22;20007;-74
2022/09/08 01:33:33;;;;;;;8.57;3.42;;;23.30;75.10;;;;;;6275971;22;19999;-74
2022/09/08 01:35:59;;;;;;;14.35;3.70;;;23.20;75.00;;;;;;6275713;22;20000;-74
2022/09/08 01:38:25;;;;;;;12.52;4.60;;;23.20;75.70;;;;;;6275792;22;20460;-74
2022/09/08 01:40:51;;;;;;;12.77;3.97;;;23.20;76.50;;;;;;6275951;22;19996;-74
2022/09/08 01:43:17;;;;;;;9.63;3.80;;;23.20;77.10;;;;;;6276126;22;20027;-74
2022/09/08 01:45:43;;;;;;;10.93;3.80;;;23.10;77.60;;;;;;6276246;22;20004;-74
2022/09/08 01:48:08;;;;;;;12.30;3.90;;;23.10;78.00;;;;;;6275947;22;20422;-73
2022/09/08 01:50:34;;;;;;;10.82;4.25;;;23.10;78.20;;;;;;6276073;22;20126;-73
2022/09/08 01:53:00;;;;;;;12.00;4.10;;;23.00;78.30;;;;;;6277280;22;20000;-74
2022/09/08 01:55:26;;;;;;;9.30;4.32;;;23.00;78.70;;;;;;6277730;22;20003;-74
2022/09/08 01:57:51;;;;;;;10.52;4.22;;;23.00;78.80;;;;;;6278100;22;20042;-74
2022/09/08 02:00:17;;;;;;;8.10;4.15;;;23.00;78.90;;;;;;6277680;22;20047;-74
2022/09/08 02:02:43;;;;;;;12.45;4.30;;;22.90;78.90;;;;;;6277756;22;20421;-73
2022/09/08 02:05:09;;;;;;;11.73;4.47;;;22.90;79.20;;;;;;6277801;22;20070;-74
2022/09/08 02:07:36;;;;;;;14.15;4.43;;;22.90;79.50;;;;;;6278030;22;20015;-74
2022/09/08 02:10:04;;;;;;;10.40;5.00;;;22.90;79.90;;;;;;6277691;22;20010;-74
2022/09/08 02:12:30;;;;;;;11.73;4.93;;;22.90;80.20;;;;;;6277510;22;20057;-74
2022/09/08 02:14:56;;;;;;;10.85;4.20;;;22.90;80.40;;;;;;6277938;22;20031;-74
2022/09/08 02:17:22;;;;;;;10.98;4.38;;;22.90;80.40;;;;;;6277410;22;20426;-74
2022/09/08 02:19:48;;;;;;;14.85;5.15;;;22.80;80.60;;;;;;6275777;22;20038;-74
2022/09/08 02:22:14;;;;;;;7.60;4.22;;;22.70;81.20;;;;;;6276458;22;20012;-74
2022/09/08 02:24:41;;;;;;;14.65;5.30;;;22.70;82.50;;;;;;6277914;22;20003;-73
2022/09/08 02:27:07;;;;;;;19.58;5.32;;;22.70;82.50;;;;;;6277538;22;20026;-73
2022/09/08 02:29:33;;;;;;;21.98;6.18;;;22.70;82.70;;;;;;6277818;22;20058;-72
2022/09/08 02:31:59;;;;;;;20.17;6.63;;;22.60;83.30;;;;;;6277340;22;20007;-73
2022/09/08 02:34:25;;;;;;;15.18;6.30;;;22.70;84.40;;;;;;6277657;22;20071;-72
2022/09/08 02:36:50;;;;;;;16.88;6.75;;;22.60;84.60;;;;;;6277355;22;19995;-72
2022/09/08 02:39:18;;;;;;;13.80;5.18;;;22.60;84.40;;;;;;6277364;22;20012;-73
2022/09/08 02:41:44;;;;;;;9.23;4.65;;;22.60;84.70;;;;;;6277619;22;20325;-72
2022/09/08 02:44:11;;;;;;;8.85;4.85;;;22.60;84.60;;;;;;6277390;22;20035;-73
2022/09/08 02:46:38;;;;;;;13.88;5.30;;;22.60;85.00;;;;;;6277618;22;19999;-73
2022/09/08 02:49:04;;;;;;;11.05;4.47;;;22.60;84.90;;;;;;6277282;22;20017;-73
2022/09/08 02:51:31;;;;;;;12.68;4.45;;;22.60;85.00;;;;;;6276979;22;19995;-73
2022/09/08 02:53:57;;;;;;;19.88;5.03;;;22.60;85.10;;;;;;6277329;22;20299;-73
2022/09/08 02:56:23;;;;;;;14.10;4.63;;;22.60;85.50;;;;;;6277228;22;19996;-76
2022/09/08 02:58:48;;;;;;;9.55;4.32;;;22.60;85.80;;;;;;6277249;22;20377;-73
2022/09/08 03:01:14;;;;;;;11.57;4.30;;;22.60;85.40;;;;;;6277311;22;19995;-73
2022/09/08 03:03:40;;;;;;;7.13;4.28;;;22.60;85.80;;;;;;6277442;22;20003;-73
2022/09/08 03:06:06;;;;;;;13.93;4.65;;;22.60;86.20;;;;;;6276962;22;20034;-72
2022/09/08 03:08:33;;;;;;;9.27;4.30;;;22.60;86.10;;;;;;6276824;22;20015;-73
2022/09/08 03:10:59;;;;;;;10.40;4.15;;;22.60;86.00;;;;;;6277315;22;20007;-73
2022/09/08 03:13:26;;;;;;;8.25;4.18;;;22.60;85.90;;;;;;6277481;22;20003;-73
2022/09/08 03:15:51;;;;;;;12.68;4.72;;;22.60;86.10;;;;;;6277158;22;20000;-73
2022/09/08 03:18:18;;;;;;;8.73;4.22;;;22.60;86.30;;;;;;6277270;22;20012;-73
2022/09/08 03:20:45;;;;;;;8.63;4.40;;;22.50;86.40;;;;;;6276878;22;20003;-72
2022/09/08 03:23:20;;;;;;;10.85;4.60;;;22.60;86.80;;;;;;6276751;22;20003;-72
2022/09/08 03:25:47;;;;;;;10.38;4.40;;;22.50;86.60;;;;;;6250152;22;20338;-73
2022/09/08 03:28:24;;;;;;;13.68;4.72;;;22.50;85.60;;;;;;6276947;22;20015;-73
2022/09/08 03:30:50;;;;;;;14.02;5.18;;;22.50;85.00;;;;;;6276804;22;20027;-73
2022/09/08 03:33:16;;;;;;;11.95;4.80;;;22.50;84.50;;;;;;6276603;22;20000;-73
2022/09/08 03:35:43;;;;;;;11.68;4.45;;;22.50;84.40;;;;;;6277010;22;20004;-73
2022/09/08 03:38:09;;;;;;;13.45;4.90;;;22.40;84.30;;;;;;6277081;22;20065;-73
2022/09/08 03:40:38;;;;;;;14.73;4.47;;;22.40;84.40;;;;;;6277092;22;20000;-73
2022/09/08 03:43:06;;;;;;;12.27;5.05;;;22.40;84.30;;;;;;6277007;22;20037;-73
2022/09/08 03:45:31;;;;;;;14.02;4.47;;;22.40;84.30;;;;;;6276435;22;20003;-74
2022/09/08 03:47:57;;;;;;;7.20;4.03;;;22.30;84.30;;;;;;6276678;22;19999;-73
2022/09/08 03:50:23;;;;;;;6.68;3.88;;;22.30;84.30;;;;;;6276703;22;20004;-76
2022/09/08 03:52:49;;;;;;;17.63;4.38;;;22.20;84.30;;;;;;6276924;22;19999;-73
2022/09/08 03:55:15;;;;;;;9.05;4.25;;;22.20;84.40;;;;;;6277313;22;20118;-73
2022/09/08 03:57:40;;;;;;;9.85;4.60;;;22.20;84.50;;;;;;6276934;22;20031;-72
2022/09/08 04:00:09;;;;;;;8.68;4.28;;;22.20;84.50;;;;;;6276636;22;20030;-73
2022/09/08 04:02:35;;;;;;;9.98;4.38;;;22.20;84.80;;;;;;6277133;22;20012;-73
2022/09/08 04:05:01;;;;;;;12.25;4.20;;;22.10;84.90;;;;;;6276700;22;20078;-73
2022/09/08 04:07:30;;;;;;;9.73;4.57;;;22.10;85.00;;;;;;6276602;22;19996;-73
2022/09/08 04:09:57;;;;;;;10.20;5.10;;;22.10;85.30;;;;;;6276264;22;20452;-73
2022/09/08 04:12:24;;;;;;;9.45;4.57;;;22.10;85.50;;;;;;6276715;22;19995;-73
2022/09/08 04:14:50;;;;;;;14.73;5.18;;;22.10;86.00;;;;;;6276682;22;20330;-73
2022/09/08 04:17:18;;;;;;;12.32;4.95;;;22.20;86.30;;;;;;6276223;22;20004;-73
2022/09/08 04:19:43;;;;;;;10.77;5.15;;;22.20;86.20;;;;;;6276277;22;20475;-74
2022/09/08 04:22:10;;;;;;;8.43;5.07;;;22.10;86.30;;;;;;6276443;22;20329;-73
2022/09/08 04:24:36;;;;;;;11.18;5.20;;;22.10;87.00;;;;;;6276117;22;19999;-73
2022/09/08 04:27:02;;;;;;;13.00;5.03;;;22.10;86.60;;;;;;6276452;22;20004;-73
2022/09/08 04:29:28;;;;;;;8.35;4.47;;;22.10;86.70;;;;;;6276210;22;20022;-73
2022/09/08 04:31:53;;;;;;;9.23;4.28;;;22.20;86.60;;;;;;6276552;22;20043;-73
2022/09/08 04:34:19;;;;;;;9.88;3.88;;;22.20;86.70;;;;;;6276540;22;20034;-73
2022/09/08 04:36:45;;;;;;;13.30;4.38;;;22.10;86.70;;;;;;6276643;22;20065;-73
2022/09/08 04:39:11;;;;;;;7.30;3.70;;;22.20;86.60;;;;;;6275953;22;20422;-73
2022/09/08 04:41:38;;;;;;;7.30;3.50;;;22.10;86.00;;;;;;6276231;22;20011;-73
2022/09/08 04:44:05;;;;;;;10.93;4.18;;;22.10;85.90;;;;;;6276277;22;20007;-73
2022/09/08 04:46:32;;;;;;;6.85;4.03;;;22.10;85.90;;;;;;6276733;22;20011;-73
2022/09/08 04:48:58;;;;;;;7.10;3.42;;;22.10;86.20;;;;;;6275907;22;20011;-73
2022/09/08 04:51:26;;;;;;;6.35;3.95;;;22.10;86.40;;;;;;6276373;22;19996;-73
2022/09/08 04:53:52;;;;;;;8.48;4.10;;;22.10;86.60;;;;;;6276776;22;20065;-73
2022/09/08 04:56:19;;;;;;;9.07;3.53;;;22.20;87.70;;;;;;6276428;22;20003;-73
2022/09/08 04:58:46;;;;;;;6.63;4.25;;;22.10;87.20;;;;;;6276403;22;20346;-73
2022/09/08 05:01:19;;;;;;;6.05;3.83;;;22.10;87.10;;;;;;6276581;22;20093;-73
2022/09/08 05:03:45;;;;;;;7.43;4.50;;;22.10;87.10;;;;;;6276392;22;20003;-73
2022/09/08 05:06:15;;;;;;;7.32;4.45;;;22.10;87.10;;;;;;6276391;22;20003;-73
2022/09/08 05:08:51;;;;;;;11.48;4.88;;;22.10;87.40;;;;;;6276679;22;20076;-75
2022/09/08 05:11:19;;;;;;;9.15;4.82;;;22.10;87.30;;;;;;6276223;22;20008;-73
2022/09/08 05:13:45;;;;;;;13.98;5.13;;;22.10;87.20;;;;;;6276360;22;20061;-73
2022/09/08 05:16:13;;;;;;;8.88;4.80;;;22.10;87.30;;;;;;6276096;22;20032;-73
2022/09/08 05:18:40;;;;;;;12.70;4.78;;;22.10;87.50;;;;;;6275824;22;20453;-73
2022/09/08 05:21:07;;;;;;;12.27;5.50;;;22.10;87.60;;;;;;6276006;22;20011;-73
2022/09/08 05:23:33;;;;;;;12.70;4.68;;;22.10;87.70;;;;;;6276124;22;20000;-73
2022/09/08 05:26:06;;;;;;;9.98;4.57;;;22.10;87.80;;;;;;6276462;22;20418;-73
2022/09/08 05:28:37;;;;;;;9.95;4.50;;;22.10;88.10;;;;;;6277729;22;20062;-73
2022/09/08 05:31:04;;;;;;;9.53;4.70;;;22.10;88.10;;;;;;6278354;22;20487;-73
2022/09/08 05:33:30;;;;;;;6.22;3.80;;;22.10;87.80;;;;;;6278277;22;20134;-72
2022/09/08 05:35:56;;;;;;;9.05;3.97;;;22.20;87.60;;;;;;6277883;22;20002;-72
2022/09/08 05:38:22;;;;;;;8.27;4.07;;;22.20;87.60;;;;;;6277859;22;20083;-72
2022/09/08 05:40:48;;;;;;;9.02;3.95;;;22.20;87.60;;;;;;6275816;22;20074;-72
2022/09/08 05:43:17;;;;;;;10.60;4.07;;;22.20;87.60;;;;;;6277443;22;20054;-73
2022/09/08 05:45:44;;;;;;;6.43;4.18;;;22.20;87.90;;;;;;6277760;22;20357;-74
2022/09/08 05:48:10;;;;;;;5.50;3.38;;;22.20;87.90;;;;;;6277182;22;20118;-70
2022/09/08 05:50:35;;;;;;;6.90;3.53;;;22.20;87.70;;;;;;6277281;22;20426;-72
2022/09/08 05:53:02;;;;;;;10.30;3.85;;;22.20;87.70;;;;;;6277552;22;19999;-72
2022/09/08 05:55:28;;;;;;;11.02;4.00;;;22.20;88.00;;;;;;6277552;22;19999;-77
2022/09/08 05:57:55;;;;;;;4.72;3.63;;;22.20;88.20;;;;;;6277090;22;20483;-70
2022/09/08 06:00:21;;;;;;;6.07;3.17;;;22.20;88.30;;;;;;6277324;22;20023;-70
2022/09/08 06:02:50;;;;;;;9.63;3.80;;;22.20;88.30;;;;;;6277804;22;20011;-73
2022/09/08 06:05:20;;;;;;;6.97;3.72;;;22.20;88.50;;;;;;6277898;22;20008;-69
2022/09/08 06:07:47;;;;;;;12.68;3.53;;;22.30;88.60;;;;;;6277452;22;19999;-69
2022/09/08 06:10:13;;;;;;;8.45;3.60;;;22.30;88.70;;;;;;6277255;22;20008;-68
2022/09/08 06:12:39;;;;;;;10.93;3.40;;;22.30;88.70;;;;;;6277737;22;20066;-69
2022/09/08 06:15:06;;;;;;;9.38;3.42;;;22.30;88.60;;;;;;6277668;22;20439;-71
2022/09/08 06:17:32;;;;;;;9.18;3.78;;;22.30;88.70;;;;;;6277561;22;20000;-70
2022/09/08 06:19:58;;;;;;;7.68;4.10;;;22.30;88.70;;;;;;6277546;22;20015;-69
2022/09/08 06:22:24;;;;;;;8.25;3.42;;;22.30;88.60;;;;;;6277341;22;20418;-75
2022/09/08 06:24:50;;;;;;;9.20;3.78;;;22.30;88.30;;;;;;6277773;22;20000;-70
2022/09/08 06:27:31;;;;;;;8.10;3.80;;;22.30;88.50;;;;;;6277485;22;20000;-72
2022/09/08 06:30:12;;;;;;;8.45;3.83;;;22.40;89.00;;;;;;6277386;22;20018;-71
2022/09/08 06:32:46;;;;;;;12.45;3.97;;;22.40;89.10;;;;;;6277325;22;20046;-70
2022/09/08 06:35:12;;;;;;;9.57;3.92;;;22.40;89.30;;;;;;6277618;22;20000;-69
2022/09/08 06:37:52;;;;;;;7.57;4.57;;;22.40;89.60;;;;;;6277260;22;20033;-69
2022/09/08 06:40:34;;;;;;;7.75;3.72;;;22.40;89.80;;;;;;6276797;22;20087;-70
2022/09/08 06:43:04;;;;;;;8.63;3.88;;;22.40;89.70;;;;;;6277230;22;20006;-70
2022/09/08 06:45:36;;;;;;;18.05;4.38;;;22.40;89.40;;;;;;6277429;22;20065;-82
2022/09/08 06:48:01;;;;;;;;;;;22.40;89.10;;;;;;6277454;22;20019;-71
2022/09/08 06:50:28;;;;;;;9.30;3.67;;;22.40;88.50;;;;;;6277172;22;19944;-69
2022/09/08 06:52:56;;;;;;;9.23;3.50;;;22.40;88.10;;;;;;6277368;22;20015;-71
2022/09/08 06:55:33;;;;;;;8.00;3.10;;;22.40;88.20;;;;;;6276765;22;20027;-72
2022/09/08 06:58:03;;;;;;;6.47;3.53;;;22.40;87.80;;;;;;6276960;22;20003;-72
2022/09/08 07:00:37;;;;;;;9.40;3.40;;;22.40;88.20;;;;;;6276731;22;20489;-76
2022/09/08 07:03:33;;;;;;;15.80;4.78;;;22.40;88.20;;;;;;6277131;22;20446;-72
2022/09/08 07:05:59;;;;;;;7.78;3.67;;;22.40;88.30;;;;;;6277137;22;19996;-87
2022/09/08 07:08:37;;;;;;;15.98;3.25;;;22.30;88.40;;;;;;6276778;22;20053;-72
2022/09/08 07:11:53;;;;;;;13.15;3.63;;;22.30;87.70;;;;;;6276573;22;20011;-72
2022/09/08 07:15:00;;;;;;;12.57;4.47;;;22.20;87.50;;;;;;6212591;22;20428;-72
2022/09/08 07:17:37;;;;;;;21.98;5.65;;;22.10;88.10;;;;;;6269422;22;20031;-73
2022/09/08 07:20:09;;;;;;;21.30;6.38;;;22.00;89.30;;;;;;6276701;22;20004;-72
2022/09/08 07:22:35;;;;;;;;;;;22.00;89.70;;;;;;6277272;22;20035;-71
2022/09/08 07:25:15;;;;;;;14.77;5.22;;;21.90;88.80;;;;;;6276732;22;19906;-71
2022/09/08 07:27:43;;;;;;;13.90;4.78;;;21.80;88.50;;;;;;6277075;22;20012;-72
2022/09/08 07:30:16;;;;;;;8.57;4.55;;;21.80;88.70;;;;;;6276714;22;20039;-72
2022/09/08 07:32:47;;;;;;;10.45;3.67;;;21.70;88.60;;;;;;6276684;22;20091;-69
2022/09/08 07:35:39;;;;;;;10.30;3.40;;;21.70;88.00;;;;;;6276850;22;20045;-72
2022/09/08 07:38:12;;;;;;;12.63;3.42;;;21.60;87.70;;;;;;6276284;22;20019;-70
2022/09/08 07:40:40;;;;;;;;;;;21.50;87.90;;;;;;6276856;22;20000;-69
2022/09/08 07:43:14;;;;;;;6.93;4.15;;;21.50;88.30;;;;;;6276628;22;19922;-69
2022/09/08 07:46:03;;;;;;;7.50;4.10;;;21.50;88.40;;;;;;6276584;22;20000;-69
2022/09/08 07:49:00;;;;;;;5.47;3.80;;;21.50;88.30;;;;;;6275276;22;20019;-68
2022/09/08 07:51:33;;;;;;;15.48;4.28;;;21.50;88.80;;;;;;6274286;22;20058;-69
2022/09/08 07:54:18;;;;;;;6.22;3.67;;;21.40;89.00;;;;;;6275806;22;20055;-69
2022/09/08 07:56:52;;;;;;;7.65;4.20;;;21.40;89.30;;;;;;6276202;22;20061;-72
2022/09/08 07:59:20;;;;;;;7.75;4.25;;;21.40;89.40;;;;;;6275243;22;20510;-69
2022/09/08 08:02:01;;;;;;;12.60;4.07;;;21.30;89.50;;;;;;6275381;22;20033;-67
2022/09/08 08:04:53;;;;;;;6.95;4.55;;;21.30;89.60;;;;;;6275342;22;20003;-69
2022/09/08 08:07:53;;;;;;;11.05;3.97;;;21.30;90.10;;;;;;6275878;22;20000;-69
2022/09/08 08:10:35;;;;;;;10.77;4.53;;;21.30;90.10;;;;;;6274028;22;20346;-69
2022/09/08 08:13:10;;;;;;;12.32;3.92;;;21.20;90.20;;;;;;6275633;22;20333;-68
2022/09/08 08:15:46;;;;;;;6.68;3.85;;;21.20;90.20;;;;;;6276662;22;20008;-68
2022/09/08 08:18:25;;;;;;;10.70;3.78;;;21.20;90.20;;;;;;6276755;22;20011;-68
2022/09/08 08:20:53;;;;;;;11.48;3.55;;;21.20;90.20;;;;;;6276889;22;20102;-72
2022/09/08 08:23:34;;;;;;;10.93;3.55;;;21.20;90.30;;;;;;6276986;22;20007;-72
2022/09/08 08:26:22;;;;;;;5.72;3.78;;;21.20;90.40;;;;;;6276223;22;20437;-68
2022/09/08 08:29:00;;;;;;;9.57;3.72;;;21.20;90.50;;;;;;6276397;22;20488;-68
2022/09/08 08:31:45;;;;;;;9.75;3.60;;;21.20;90.60;;;;;;6276299;22;20426;-69
2022/09/08 08:34:27;;;;;;;8.25;3.42;;;21.30;90.60;;;;;;6276212;22;20054;-68
2022/09/08 08:37:03;;;;;;;5.88;3.20;;;21.30;90.60;;;;;;6275480;22;20000;-69
2022/09/08 08:39:32;;;;;;;7.13;3.45;;;21.20;90.60;;;;;;6275577;22;20007;-68
2022/09/08 08:42:29;;;;;;;6.97;3.55;;;21.20;90.60;;;;;;6276027;22;20008;-69
2022/09/08 08:45:29;;;;;;;14.85;4.50;;;21.10;90.30;;;;;;6276266;22;20008;-68
2022/09/08 08:48:12;;;;;;;10.35;4.50;;;21.00;90.60;;;;;;6275732;22;20003;-68
2022/09/08 08:50:53;;;;;;;8.40;3.88;;;21.00;91.00;;;;;;6275211;22;20354;-69
2022/09/08 08:53:35;;;;;;;5.68;2.97;;;21.00;91.10;;;;;;6274231;22;20326;-69
2022/09/08 08:56:11;;;;;;;;;;;21.00;91.20;;;;;;6274446;22;20387;-69
2022/09/08 08:58:39;;;;;;;6.00;2.88;;;21.00;91.00;;;;;;6274642;22;19899;-69
2022/09/08 09:01:37;;;;;;;6.55;2.50;;;20.90;91.00;;;;;;6276676;22;20046;-69
2022/09/08 09:04:31;;;;;;;4.40;2.60;;;20.90;91.10;;;;;;6278380;22;19995;-69
2022/09/08 09:08:02;;;;;;;6.85;2.58;;;20.90;91.10;;;;;;6278348;22;20008;-68
2022/09/08 09:11:08;;;;;;;7.00;2.92;;;21.00;91.20;;;;;;6183827;23;20187;-69
2022/09/08 09:14:01;;;;;;;6.55;3.45;;;21.00;91.20;;;;;;6183759;23;20182;-69
2022/09/08 09:16:36;;;;;;;3.75;2.50;;;21.00;91.00;;;;;;6271567;22;20003;-69
2022/09/08 09:19:23;;;;;;;4.30;2.33;;;21.10;91.10;;;;;;6278256;22;20018;-69
2022/09/08 09:22:02;;;;;;;4.65;2.35;;;21.00;90.80;;;;;;6278098;22;20000;-71
2022/09/08 09:24:46;;;;;;;7.68;3.05;;;21.10;90.70;;;;;;6277966;22;20031;-70
2022/09/08 09:27:23;;;;;;;4.47;3.05;;;21.10;90.60;;;;;;6277366;22;20090;-69
2022/09/08 09:30:13;;;;;;;6.55;2.95;;;21.20;90.70;;;;;;6278443;22;20016;-69
2022/09/08 09:32:44;;;;;;;7.38;2.90;;;21.10;90.70;;;;;;6277981;22;20003;-69
2022/09/08 09:35:28;;;;;;;7.78;3.20;;;21.20;90.90;;;;;;6251004;22;20302;-68
2022/09/08 09:38:16;;;;;;;7.22;2.60;;;21.20;90.90;;;;;;6277780;22;20027;-69
2022/09/08 09:40:50;;;;;;;7.85;2.97;;;21.10;90.70;;;;;;6277009;22;20014;-69
2022/09/08 09:43:36;;;;;;;8.40;3.40;;;21.10;90.90;;;;;;6276755;22;20426;-70
2022/09/08 09:46:13;;;;;;;6.65;3.95;;;21.00;91.20;;;;;;6277318;22;20387;-69
2022/09/08 09:49:21;;;;;;;6.70;3.65;;;20.90;91.60;;;;;;6276728;22;20043;-69
2022/09/08 09:52:10;;;;;;;11.30;3.65;;;20.70;92.10;;;;;;6248361;22;20415;-71
2022/09/08 09:55:01;;;;;;;6.55;2.95;;;20.70;92.40;;;;;;6275428;22;20319;-70
2022/09/08 09:57:52;;;;;;;7.57;2.80;;;20.70;92.40;;;;;;6277659;22;20091;-69
2022/09/08 10:00:25;;;;;;;8.75;3.17;;;20.80;92.70;;;;;;6277399;22;20315;-70
2022/09/08 10:03:18;;;;;;;4.28;2.53;;;20.80;92.40;;;;;;6277524;22;20441;-71
2022/09/08 10:05:52;;;;;;;9.50;3.30;;;20.90;92.30;;;;;;6277378;22;19999;-70
2022/09/08 10:08:30;;;;;;;7.65;3.17;;;21.00;92.30;;;;;;6277680;22;20497;-68
2022/09/08 10:11:21;;;;;;;9.18;3.85;;;21.00;92.40;;;;;;6277493;22;20003;-70
2022/09/08 10:13:47;;;;;;;7.93;3.53;;;21.10;92.50;;;;;;6277191;22;20004;-69
2022/09/08 10:16:51;;;;;;;5.35;2.97;;;21.10;92.50;;;;;;6276445;22;20038;-70
2022/09/08 10:19:31;;;;;;;5.32;2.45;;;21.20;92.30;;;;;;6275735;22;20247;-69
2022/09/08 10:22:15;;;;;;;5.50;3.00;;;21.10;92.20;;;;;;6275201;22;20061;-70
2022/09/08 10:25:16;;;;;;;4.85;2.50;;;21.10;92.30;;;;;;6274933;22;20039;-71
2022/09/08 10:28:06;;;;;;;6.53;3.65;;;21.10;92.50;;;;;;6203075;22;20003;-70
2022/09/08 10:31:11;;;;;;;9.07;2.92;;;21.10;92.40;;;;;;6274452;22;20012;-70
2022/09/08 10:33:48;;;;;;;7.55;3.65;;;21.20;92.10;;;;;;6274757;22;20003;-69
2022/09/08 10:36:14;;;;;;;6.72;3.20;;;21.20;92.10;;;;;;6274777;22;20100;-70
2022/09/08 10:38:51;;;;;;;8.27;3.70;;;21.20;92.20;;;;;;6273751;22;20448;-69
2022/09/08 10:41:43;;;;;;;6.65;3.20;;;21.10;92.30;;;;;;6275185;22;20034;-70
2022/09/08 10:44:41;;;;;;;6.03;3.25;;;21.10;92.50;;;;;;6275459;22;20071;-69
2022/09/08 10:47:27;;;;;;;13.73;4.15;;;21.00;92.60;;;;;;6277705;22;20065;-68
2022/09/08 10:50:25;;;;;;;10.88;4.22;;;21.00;93.00;;;;;;6275786;22;20069;-69
2022/09/08 10:53:03;;;;;;;7.88;3.67;;;21.00;93.20;;;;;;6269483;22;20096;-69
2022/09/08 10:55:57;;;;;;;6.53;3.00;;;21.00;93.40;;;;;;6277250;22;20204;-69
2022/09/08 10:58:59;;;;;;;5.57;2.75;;;21.00;93.50;;;;;;6277183;22;20011;-69
2022/09/08 11:01:37;;;;;;;7.30;3.20;;;21.00;93.10;;;;;;6277255;22;20031;-69
2022/09/08 11:04:21;;;;;;;5.55;2.65;;;21.00;93.20;;;;;;6277208;22;20082;-74
2022/09/08 11:07:08;;;;;;;3.97;2.60;;;21.00;93.20;;;;;;6276982;22;20461;-69
2022/09/08 11:10:02;;;;;;;4.20;2.67;;;21.00;93.10;;;;;;6277188;22;20345;-72
2022/09/08 11:12:28;;;;;;;5.55;2.38;;;21.00;93.10;;;;;;6276663;22;20025;-69
2022/09/08 11:14:56;;;;;;;8.20;2.42;;;21.00;93.10;;;;;;6277304;22;20467;-68
2022/09/08 11:17:27;;;;;;;8.88;2.50;;;21.00;93.00;;;;;;6277073;22;20085;-69
2022/09/08 11:20:02;;;;;;;5.07;2.47;;;21.00;93.10;;;;;;6277134;22;20003;-69
2022/09/08 11:22:41;;;;;;;6.80;2.53;;;21.00;93.30;;;;;;6277091;22;20003;-68
2022/09/08 11:25:25;;;;;;;3.53;2.10;;;21.00;93.20;;;;;;6276800;22;20042;-69
2022/09/08 11:28:28;;;;;;;4.57;3.05;;;21.10;93.00;;;;;;6276894;22;19999;-69
2022/09/08 11:31:00;;;;;;;11.18;2.97;;;21.10;92.90;;;;;;6276827;22;20012;-69
2022/09/08 11:33:28;;;;;;;8.35;2.85;;;21.10;93.10;;;;;;6277054;22;20356;-73
2022/09/08 11:36:10;;;;;;;4.38;2.50;;;21.10;93.30;;;;;;6276321;22;19996;-69
2022/09/08 11:39:18;;;;;;;3.85;2.58;;;21.10;93.40;;;;;;6276406;22;20007;-69
2022/09/08 11:42:25;;;;;;;4.82;2.78;;;21.10;93.50;;;;;;6276500;22;20003;-69
2022/09/08 11:44:53;;;;;;;4.05;2.63;;;21.20;93.60;;;;;;6255721;22;20043;-70
2022/09/08 11:47:57;;;;;;;5.07;2.80;;;21.20;93.70;;;;;;6276441;22;20004;-69
2022/09/08 11:50:26;;;;;;;4.63;2.35;;;21.30;93.90;;;;;;6217704;22;20161;-70
2022/09/08 11:53:11;;;;;;;6.28;2.75;;;21.30;94.00;;;;;;6276247;22;19999;-69
2022/09/08 11:56:27;;;;;;;8.65;2.50;;;21.40;93.80;;;;;;6276787;22;20377;-69
2022/09/08 11:59:32;;;;;;;7.18;2.50;;;21.40;93.60;;;;;;6123850;23;20010;-69
2022/09/08 12:02:32;;;;;;;6.47;2.45;;;21.50;93.80;;;;;;6252072;22;20008;-69
2022/09/08 12:05:13;;;;;;;5.22;2.53;;;21.60;94.20;;;;;;6276779;22;20045;-69
2022/09/08 12:08:08;;;;;;;4.47;2.38;;;21.80;94.10;;;;;;6276473;22;20023;-69
2022/09/08 12:11:01;;;;;;;6.65;2.30;;;21.90;93.70;;;;;;6276667;22;20011;-69
2022/09/08 12:13:29;;;;;;;6.20;2.60;;;21.90;93.40;;;;;;6276264;22;20007;-69
2022/09/08 12:16:00;;;;;;;4.75;2.28;;;22.00;93.30;;;;;;6276689;22;20008;-69
2022/09/08 12:18:41;;;;;;;7.03;2.60;;;22.10;93.20;;;;;;6276764;22;20000;-71
2022/09/08 12:21:18;;;;;;;6.88;2.45;;;22.20;93.10;;;;;;6276740;22;20007;-72
2022/09/08 12:24:00;;;;;;;7.43;2.00;;;22.20;92.80;;;;;;6276221;22;20007;-70
2022/09/08 12:26:36;;;;;;;4.15;2.10;;;22.20;92.60;;;;;;6276160;22;20377;-70
2022/09/08 12:29:28;;;;;;;5.80;2.15;;;22.20;92.40;;;;;;6276369;22;20419;-69
2022/09/08 12:32:27;;;;;;;4.35;2.08;;;22.20;92.60;;;;;;6218776;22;20079;-69
2022/09/08 12:35:08;;;;;;;8.65;2.63;;;22.10;92.50;;;;;;6276393;22;20415;-69
2022/09/08 12:37:55;;;;;;;6.57;2.33;;;22.10;92.70;;;;;;6276843;22;20044;-69
2022/09/08 12:40:58;;;;;;;4.80;2.10;;;22.10;92.80;;;;;;6276285;22;20331;-70
2022/09/08 12:43:26;;;;;;;5.85;2.30;;;22.10;92.90;;;;;;6276420;22;20045;-72
2022/09/08 14:01:00;;;;;;;2.88;1.58;;;23.20;91.50;;;;;;6275429;22;20027;-69
2022/09/08 14:03:31;;;;;;;5.40;1.30;;;23.40;91.30;;;;;;6277698;22;20012;-70
2022/09/08 14:05:58;;;;;;;7.60;1.23;;;23.40;91.20;;;;;;6277632;22;20007;-70
2022/09/08 14:08:29;;;;;;;4.82;1.70;;;23.40;90.60;;;;;;6277420;22;20338;-70
2022/09/08 14:11:32;;;;;;;5.40;1.33;;;23.40;90.30;;;;;;6275263;22;20011;-70
2022/09/08 14:14:29;;;;;;;6.10;1.73;;;23.50;90.20;;;;;;6277099;22;20039;-69
2022/09/08 14:17:36;;;;;;;5.88;1.40;;;23.50;90.00;;;;;;6193607;22;20011;-72
2022/09/08 14:20:29;;;;;;;3.78;1.55;;;23.50;90.00;;;;;;6124338;23;20002;-70
2022/09/08 14:22:59;;;;;;;5.75;1.30;;;23.60;90.20;;;;;;6277114;22;20441;-70
2022/09/08 14:25:33;;;;;;;4.57;1.58;;;23.60;90.00;;;;;;6277447;22;20045;-70
2022/09/08 14:28:18;;;;;;;5.20;1.58;;;23.60;89.80;;;;;;6277750;22;20007;-70
2022/09/08 14:31:15;;;;;;;49.05;3.58;;;23.60;89.40;;;;;;6276249;22;20054;-70
2022/09/08 14:33:44;;;;;;;6.28;1.25;;;23.60;90.00;;;;;;6277493;22;20003;-70
2022/09/08 14:36:25;;;;;;;3.58;1.20;;;23.60;88.90;;;;;;6276982;22;20007;-70
2022/09/08 14:39:03;;;;;;;7.32;1.20;;;23.60;88.30;;;;;;6277043;22;20007;-70
2022/09/08 14:41:43;;;;;;;15.52;1.52;;;23.50;88.50;;;;;;6277357;22;19996;-71
2022/09/08 14:44:23;;;;;;;5.63;1.33;;;23.50;88.70;;;;;;6276976;22;20004;-71
2022/09/08 14:46:59;;;;;;;4.22;1.35;;;23.50;89.30;;;;;;6277523;22;20007;-70
2022/09/08 14:49:52;;;;;;;3.20;1.38;;;23.40;89.80;;;;;;6277179;22;20012;-72